sensor_id;sensor_type;location;lat;lon;timestamp;temperature;humidity
30628;DHT22;17394;50.890;4.724;2023-03-13T00:00:17;10.60;99.90
30628;DHT22;17394;50.890;4.724;2023-03-13T00:02:42;10.70;99.90
30628;DHT22;17394;50.890;4.724;2023-03-13T00:05:11;10.60;99.90
30628;DHT22;17394;50.890;4.724;2023-03-13T00:07:37;10.60;99.90
30628;DHT22;17394;50.890;4.724;2023-03-13T00:10:03;10.60;99.90
30628;DHT22;17394;50.890;4.724;2023-03-13T00:12:29;10.60;99.90
30628;DHT22;17394;50.890;4.724;2023-03-13T00:14:55;10.60;99.90
30628;DHT22;17394;50.890;4.724;2023-03-13T00:17:20;10.60;99.90
30628;DHT22;17394;50.890;4.724;2023-03-13T00:19:46;10.70;99.90
30628;DHT22;17394;50.890;4.724;2023-03-13T00:22:11;10.60;99.90
30628;DHT22;17394;50.890;4.724;2023-03-13T00:24:37;10.60;99.90
30628;DHT22;17394;50.890;4.724;2023-03-13T00:27:03;10.70;99.90
30628;DHT22;17394;50.890;4.724;2023-03-13T00:29:31;10.70;99.90
30628;DHT22;17394;50.890;4.724;2023-03-13T00:31:57;10.70;99.90
30628;DHT22;17394;50.890;4.724;2023-03-13T00:34:22;10.60;99.90
30628;DHT22;17394;50.890;4.724;2023-03-13T00:36:50;10.70;99.90
30628;DHT22;17394;50.890;4.724;2023-03-13T00:39:16;10.70;99.90
30628;DHT22;17394;50.890;4.724;2023-03-13T00:41:42;10.70;99.90
30628;DHT22;17394;50.890;4.724;2023-03-13T00:44:09;10.70;99.90
30628;DHT22;17394;50.890;4.724;2023-03-13T00:46:34;10.70;99.90
30628;DHT22;17394;50.890;4.724;2023-03-13T00:49:00;10.70;99.90
30628;DHT22;17394;50.890;4.724;2023-03-13T00:51:26;10.70;99.90
30628;DHT22;17394;50.890;4.724;2023-03-13T00:53:52;10.70;99.90
30628;DHT22;17394;50.890;4.724;2023-03-13T00:56:19;10.70;99.90
30628;DHT22;17394;50.890;4.724;2023-03-13T00:58:45;10.70;99.90
30628;DHT22;17394;50.890;4.724;2023-03-13T01:03:40;10.70;99.90
30628;DHT22;17394;50.890;4.724;2023-03-13T01:06:07;10.70;99.90
30628;DHT22;17394;50.890;4.724;2023-03-13T01:08:33;10.70;99.90
30628;DHT22;17394;50.890;4.724;2023-03-13T01:11:04;10.70;99.90
30628;DHT22;17394;50.890;4.724;2023-03-13T01:13:30;10.70;99.90
30628;DHT22;17394;50.890;4.724;2023-03-13T01:16:00;10.70;99.90
30628;DHT22;17394;50.890;4.724;2023-03-13T01:18:26;10.80;99.90
30628;DHT22;17394;50.890;4.724;2023-03-13T01:20:52;10.80;99.90
30628;DHT22;17394;50.890;4.724;2023-03-13T01:23:17;10.80;99.90
30628;DHT22;17394;50.890;4.724;2023-03-13T01:25:44;10.80;99.90
30628;DHT22;17394;50.890;4.724;2023-03-13T01:28:09;10.80;99.90
30628;DHT22;17394;50.890;4.724;2023-03-13T01:30:35;10.80;99.90
30628;DHT22;17394;50.890;4.724;2023-03-13T01:33:00;10.90;99.90
30628;DHT22;17394;50.890;4.724;2023-03-13T01:35:26;10.80;99.90
30628;DHT22;17394;50.890;4.724;2023-03-13T01:37:52;10.90;99.90
30628;DHT22;17394;50.890;4.724;2023-03-13T01:40:18;11.00;99.90
30628;DHT22;17394;50.890;4.724;2023-03-13T01:42:56;11.00;99.90
30628;DHT22;17394;50.890;4.724;2023-03-13T01:48:07;11.10;99.90
30628;DHT22;17394;50.890;4.724;2023-03-13T01:50:32;11.10;99.90
30628;DHT22;17394;50.890;4.724;2023-03-13T01:52:58;11.10;99.90
30628;DHT22;17394;50.890;4.724;2023-03-13T01:55:24;11.20;99.90
30628;DHT22;17394;50.890;4.724;2023-03-13T01:57:50;11.20;99.90
30628;DHT22;17394;50.890;4.724;2023-03-13T02:00:21;11.20;99.90
30628;DHT22;17394;50.890;4.724;2023-03-13T02:02:50;11.20;99.90
30628;DHT22;17394;50.890;4.724;2023-03-13T02:05:17;11.20;99.90
30628;DHT22;17394;50.890;4.724;2023-03-13T02:07:48;11.30;99.90
30628;DHT22;17394;50.890;4.724;2023-03-13T02:10:15;11.30;99.90
30628;DHT22;17394;50.890;4.724;2023-03-13T02:12:42;11.30;99.90
30628;DHT22;17394;50.890;4.724;2023-03-13T02:15:09;11.30;99.90
30628;DHT22;17394;50.890;4.724;2023-03-13T02:17:36;11.30;99.90
30628;DHT22;17394;50.890;4.724;2023-03-13T02:20:02;11.40;99.90
30628;DHT22;17394;50.890;4.724;2023-03-13T02:25:28;11.40;99.90
30628;DHT22;17394;50.890;4.724;2023-03-13T02:27:59;11.40;99.90
30628;DHT22;17394;50.890;4.724;2023-03-13T02:30:25;11.50;99.90
30628;DHT22;17394;50.890;4.724;2023-03-13T02:32:51;11.50;99.90
30628;DHT22;17394;50.890;4.724;2023-03-13T02:35:17;11.50;99.90
30628;DHT22;17394;50.890;4.724;2023-03-13T02:37:45;11.60;99.90
30628;DHT22;17394;50.890;4.724;2023-03-13T02:40:13;11.60;99.90
30628;DHT22;17394;50.890;4.724;2023-03-13T02:42:40;11.60;99.90
30628;DHT22;17394;50.890;4.724;2023-03-13T02:45:06;11.70;99.90
30628;DHT22;17394;50.890;4.724;2023-03-13T02:47:32;11.80;99.90
30628;DHT22;17394;50.890;4.724;2023-03-13T02:49:58;11.80;99.90
30628;DHT22;17394;50.890;4.724;2023-03-13T02:52:25;11.90;99.90
30628;DHT22;17394;50.890;4.724;2023-03-13T02:54:53;11.90;99.90
30628;DHT22;17394;50.890;4.724;2023-03-13T02:57:19;12.00;99.90
30628;DHT22;17394;50.890;4.724;2023-03-13T02:59:45;12.00;99.90
30628;DHT22;17394;50.890;4.724;2023-03-13T03:02:11;12.10;99.90
30628;DHT22;17394;50.890;4.724;2023-03-13T03:04:36;12.10;99.90
30628;DHT22;17394;50.890;4.724;2023-03-13T03:07:02;12.10;99.90
30628;DHT22;17394;50.890;4.724;2023-03-13T03:09:28;12.20;99.90
30628;DHT22;17394;50.890;4.724;2023-03-13T03:11:53;12.20;99.90
30628;DHT22;17394;50.890;4.724;2023-03-13T03:14:19;12.30;99.90
30628;DHT22;17394;50.890;4.724;2023-03-13T03:16:45;12.30;99.90
30628;DHT22;17394;50.890;4.724;2023-03-13T03:19:11;12.30;99.90
30628;DHT22;17394;50.890;4.724;2023-03-13T03:21:36;12.30;99.90
30628;DHT22;17394;50.890;4.724;2023-03-13T03:24:02;12.40;99.90
30628;DHT22;17394;50.890;4.724;2023-03-13T03:26:28;12.40;99.90
30628;DHT22;17394;50.890;4.724;2023-03-13T03:28:54;12.40;99.90
30628;DHT22;17394;50.890;4.724;2023-03-13T03:31:20;12.40;99.90
30628;DHT22;17394;50.890;4.724;2023-03-13T03:33:45;12.50;99.90
30628;DHT22;17394;50.890;4.724;2023-03-13T03:36:12;12.50;99.90
30628;DHT22;17394;50.890;4.724;2023-03-13T03:38:38;12.50;99.90
30628;DHT22;17394;50.890;4.724;2023-03-13T03:41:05;12.50;99.90
30628;DHT22;17394;50.890;4.724;2023-03-13T03:43:31;12.50;99.90
30628;DHT22;17394;50.890;4.724;2023-03-13T03:45:56;12.60;99.90
30628;DHT22;17394;50.890;4.724;2023-03-13T03:48:22;12.60;99.90
30628;DHT22;17394;50.890;4.724;2023-03-13T03:50:48;12.60;99.90
30628;DHT22;17394;50.890;4.724;2023-03-13T03:53:13;12.60;99.90
30628;DHT22;17394;50.890;4.724;2023-03-13T03:55:39;12.70;99.90
30628;DHT22;17394;50.890;4.724;2023-03-13T03:58:04;12.70;99.90
30628;DHT22;17394;50.890;4.724;2023-03-13T04:00:30;12.60;99.90
30628;DHT22;17394;50.890;4.724;2023-03-13T04:02:56;12.60;99.90
30628;DHT22;17394;50.890;4.724;2023-03-13T04:05:22;12.60;99.90
30628;DHT22;17394;50.890;4.724;2023-03-13T04:07:47;12.50;99.90
30628;DHT22;17394;50.890;4.724;2023-03-13T04:10:13;12.50;99.90
30628;DHT22;17394;50.890;4.724;2023-03-13T04:12:39;12.60;99.90
30628;DHT22;17394;50.890;4.724;2023-03-13T04:15:05;12.60;99.90
30628;DHT22;17394;50.890;4.724;2023-03-13T04:17:31;12.60;99.90
30628;DHT22;17394;50.890;4.724;2023-03-13T04:19:57;12.70;99.90
30628;DHT22;17394;50.890;4.724;2023-03-13T04:22:23;12.70;99.90
30628;DHT22;17394;50.890;4.724;2023-03-13T04:24:49;12.70;99.90
30628;DHT22;17394;50.890;4.724;2023-03-13T04:27:15;12.70;99.90
30628;DHT22;17394;50.890;4.724;2023-03-13T04:29:40;12.70;99.90
30628;DHT22;17394;50.890;4.724;2023-03-13T04:32:06;12.70;99.90
30628;DHT22;17394;50.890;4.724;2023-03-13T04:34:32;12.70;99.90
30628;DHT22;17394;50.890;4.724;2023-03-13T04:36:57;12.80;99.90
30628;DHT22;17394;50.890;4.724;2023-03-13T04:39:23;12.80;99.90
30628;DHT22;17394;50.890;4.724;2023-03-13T04:41:50;12.80;99.90
30628;DHT22;17394;50.890;4.724;2023-03-13T04:44:16;12.80;99.90
30628;DHT22;17394;50.890;4.724;2023-03-13T04:46:42;12.80;99.90
30628;DHT22;17394;50.890;4.724;2023-03-13T04:49:07;12.80;99.90
30628;DHT22;17394;50.890;4.724;2023-03-13T04:51:33;12.90;99.90
30628;DHT22;17394;50.890;4.724;2023-03-13T04:53:59;12.90;99.90
30628;DHT22;17394;50.890;4.724;2023-03-13T04:56:25;12.90;99.90
30628;DHT22;17394;50.890;4.724;2023-03-13T04:58:51;12.90;99.90
30628;DHT22;17394;50.890;4.724;2023-03-13T05:01:17;12.90;99.90
30628;DHT22;17394;50.890;4.724;2023-03-13T05:03:42;12.90;99.90
30628;DHT22;17394;50.890;4.724;2023-03-13T05:06:08;13.00;99.90
30628;DHT22;17394;50.890;4.724;2023-03-13T05:08:34;13.00;99.90
30628;DHT22;17394;50.890;4.724;2023-03-13T05:11:01;13.00;99.90
30628;DHT22;17394;50.890;4.724;2023-03-13T05:13:26;13.00;99.90
30628;DHT22;17394;50.890;4.724;2023-03-13T05:15:52;13.00;99.90
30628;DHT22;17394;50.890;4.724;2023-03-13T05:18:18;13.00;99.90
30628;DHT22;17394;50.890;4.724;2023-03-13T05:20:43;13.00;99.90
30628;DHT22;17394;50.890;4.724;2023-03-13T05:23:09;13.00;99.90
30628;DHT22;17394;50.890;4.724;2023-03-13T05:25:35;13.00;99.90
30628;DHT22;17394;50.890;4.724;2023-03-13T05:28:00;13.00;99.90
30628;DHT22;17394;50.890;4.724;2023-03-13T05:30:26;13.00;99.90
30628;DHT22;17394;50.890;4.724;2023-03-13T05:32:52;13.00;99.90
30628;DHT22;17394;50.890;4.724;2023-03-13T05:35:17;13.00;99.90
30628;DHT22;17394;50.890;4.724;2023-03-13T05:37:43;13.00;99.90
30628;DHT22;17394;50.890;4.724;2023-03-13T05:40:10;13.00;99.90
30628;DHT22;17394;50.890;4.724;2023-03-13T05:42:36;13.00;99.90
30628;DHT22;17394;50.890;4.724;2023-03-13T05:45:01;13.00;99.90
30628;DHT22;17394;50.890;4.724;2023-03-13T05:47:27;13.10;99.90
30628;DHT22;17394;50.890;4.724;2023-03-13T05:49:53;13.10;99.90
30628;DHT22;17394;50.890;4.724;2023-03-13T05:52:19;13.10;99.90
30628;DHT22;17394;50.890;4.724;2023-03-13T05:54:44;13.00;99.90
30628;DHT22;17394;50.890;4.724;2023-03-13T05:57:10;13.10;99.90
30628;DHT22;17394;50.890;4.724;2023-03-13T05:59:36;13.10;99.90
30628;DHT22;17394;50.890;4.724;2023-03-13T06:02:01;13.10;99.90
30628;DHT22;17394;50.890;4.724;2023-03-13T06:04:27;13.10;99.90
30628;DHT22;17394;50.890;4.724;2023-03-13T06:06:53;13.10;99.90
30628;DHT22;17394;50.890;4.724;2023-03-13T06:09:18;13.10;99.90
30628;DHT22;17394;50.890;4.724;2023-03-13T06:11:44;13.10;99.90
30628;DHT22;17394;50.890;4.724;2023-03-13T06:14:10;13.10;99.90
30628;DHT22;17394;50.890;4.724;2023-03-13T06:16:36;13.10;99.90
30628;DHT22;17394;50.890;4.724;2023-03-13T06:19:02;13.10;99.90
30628;DHT22;17394;50.890;4.724;2023-03-13T06:21:27;13.10;99.90
30628;DHT22;17394;50.890;4.724;2023-03-13T06:23:53;13.10;99.90
30628;DHT22;17394;50.890;4.724;2023-03-13T06:26:19;13.20;99.90
30628;DHT22;17394;50.890;4.724;2023-03-13T06:28:45;13.10;99.90
30628;DHT22;17394;50.890;4.724;2023-03-13T06:31:10;13.20;99.90
30628;DHT22;17394;50.890;4.724;2023-03-13T06:33:36;13.20;99.90
30628;DHT22;17394;50.890;4.724;2023-03-13T06:36:02;13.20;99.90
30628;DHT22;17394;50.890;4.724;2023-03-13T06:38:28;13.10;99.90
30628;DHT22;17394;50.890;4.724;2023-03-13T06:40:54;13.10;99.90
30628;DHT22;17394;50.890;4.724;2023-03-13T06:43:20;13.10;99.90
30628;DHT22;17394;50.890;4.724;2023-03-13T06:45:46;13.10;99.90
30628;DHT22;17394;50.890;4.724;2023-03-13T06:48:11;13.20;99.90
30628;DHT22;17394;50.890;4.724;2023-03-13T06:50:37;13.20;99.90
30628;DHT22;17394;50.890;4.724;2023-03-13T06:53:04;13.20;99.90
30628;DHT22;17394;50.890;4.724;2023-03-13T06:55:30;13.20;99.90
30628;DHT22;17394;50.890;4.724;2023-03-13T06:57:55;13.30;99.90
30628;DHT22;17394;50.890;4.724;2023-03-13T07:00:21;13.30;99.90
30628;DHT22;17394;50.890;4.724;2023-03-13T07:02:47;13.30;99.90
30628;DHT22;17394;50.890;4.724;2023-03-13T07:05:12;13.30;99.90
30628;DHT22;17394;50.890;4.724;2023-03-13T07:07:39;13.30;99.90
30628;DHT22;17394;50.890;4.724;2023-03-13T07:10:06;13.40;99.90
30628;DHT22;17394;50.890;4.724;2023-03-13T07:12:33;13.40;99.90
30628;DHT22;17394;50.890;4.724;2023-03-13T07:14:58;13.40;99.90
30628;DHT22;17394;50.890;4.724;2023-03-13T07:17:24;13.40;99.90
30628;DHT22;17394;50.890;4.724;2023-03-13T07:19:50;13.40;99.90
30628;DHT22;17394;50.890;4.724;2023-03-13T07:22:15;13.50;99.90
30628;DHT22;17394;50.890;4.724;2023-03-13T07:24:41;13.60;99.90
30628;DHT22;17394;50.890;4.724;2023-03-13T07:27:06;13.60;99.90
30628;DHT22;17394;50.890;4.724;2023-03-13T07:29:35;13.70;99.90
30628;DHT22;17394;50.890;4.724;2023-03-13T07:32:01;13.70;99.90
30628;DHT22;17394;50.890;4.724;2023-03-13T07:34:27;13.70;99.90
30628;DHT22;17394;50.890;4.724;2023-03-13T07:36:52;13.70;99.90
30628;DHT22;17394;50.890;4.724;2023-03-13T07:39:18;13.80;99.90
30628;DHT22;17394;50.890;4.724;2023-03-13T07:41:44;13.80;99.90
30628;DHT22;17394;50.890;4.724;2023-03-13T07:44:09;13.70;99.90
30628;DHT22;17394;50.890;4.724;2023-03-13T07:46:35;13.70;99.90
30628;DHT22;17394;50.890;4.724;2023-03-13T07:49:00;13.70;99.90
30628;DHT22;17394;50.890;4.724;2023-03-13T07:51:26;13.80;99.90
30628;DHT22;17394;50.890;4.724;2023-03-13T07:53:52;13.80;99.90
30628;DHT22;17394;50.890;4.724;2023-03-13T07:56:21;14.00;99.90
30628;DHT22;17394;50.890;4.724;2023-03-13T07:58:47;14.10;99.90
30628;DHT22;17394;50.890;4.724;2023-03-13T08:01:14;14.20;99.90
30628;DHT22;17394;50.890;4.724;2023-03-13T08:03:41;14.30;99.90
30628;DHT22;17394;50.890;4.724;2023-03-13T08:06:07;14.20;99.90
30628;DHT22;17394;50.890;4.724;2023-03-13T08:08:33;14.00;99.90
30628;DHT22;17394;50.890;4.724;2023-03-13T08:11:00;14.00;99.90
30628;DHT22;17394;50.890;4.724;2023-03-13T08:13:26;14.00;99.90
30628;DHT22;17394;50.890;4.724;2023-03-13T08:15:51;14.00;99.90
30628;DHT22;17394;50.890;4.724;2023-03-13T08:18:17;13.90;99.90
30628;DHT22;17394;50.890;4.724;2023-03-13T08:20:42;13.80;99.90
30628;DHT22;17394;50.890;4.724;2023-03-13T08:23:08;13.70;99.90
30628;DHT22;17394;50.890;4.724;2023-03-13T08:25:34;13.80;99.90
30628;DHT22;17394;50.890;4.724;2023-03-13T08:27:59;13.90;99.90
30628;DHT22;17394;50.890;4.724;2023-03-13T08:30:25;14.10;99.90
30628;DHT22;17394;50.890;4.724;2023-03-13T08:32:50;14.30;99.90
30628;DHT22;17394;50.890;4.724;2023-03-13T08:35:16;14.50;99.90
30628;DHT22;17394;50.890;4.724;2023-03-13T08:37:42;14.80;99.90
30628;DHT22;17394;50.890;4.724;2023-03-13T08:40:08;15.00;99.90
30628;DHT22;17394;50.890;4.724;2023-03-13T08:42:36;15.10;99.90
30628;DHT22;17394;50.890;4.724;2023-03-13T08:45:03;15.20;99.90
30628;DHT22;17394;50.890;4.724;2023-03-13T08:47:28;15.40;99.90
30628;DHT22;17394;50.890;4.724;2023-03-13T08:49:54;15.50;99.90
30628;DHT22;17394;50.890;4.724;2023-03-13T08:52:20;15.50;99.90
30628;DHT22;17394;50.890;4.724;2023-03-13T08:54:47;15.40;99.90
30628;DHT22;17394;50.890;4.724;2023-03-13T08:57:12;15.40;99.90
30628;DHT22;17394;50.890;4.724;2023-03-13T08:59:39;15.30;99.90
30628;DHT22;17394;50.890;4.724;2023-03-13T09:02:05;15.20;99.90
30628;DHT22;17394;50.890;4.724;2023-03-13T09:04:31;15.20;99.90
30628;DHT22;17394;50.890;4.724;2023-03-13T09:06:56;15.10;99.90
30628;DHT22;17394;50.890;4.724;2023-03-13T09:09:22;15.00;99.90
30628;DHT22;17394;50.890;4.724;2023-03-13T09:11:48;15.10;99.90
30628;DHT22;17394;50.890;4.724;2023-03-13T09:14:14;15.40;99.90
30628;DHT22;17394;50.890;4.724;2023-03-13T09:16:39;15.60;99.90
30628;DHT22;17394;50.890;4.724;2023-03-13T09:19:05;15.80;99.90
30628;DHT22;17394;50.890;4.724;2023-03-13T09:21:31;15.90;99.90
30628;DHT22;17394;50.890;4.724;2023-03-13T09:23:58;15.90;99.90
30628;DHT22;17394;50.890;4.724;2023-03-13T09:26:24;16.00;99.90
30628;DHT22;17394;50.890;4.724;2023-03-13T09:28:50;16.10;99.90
30628;DHT22;17394;50.890;4.724;2023-03-13T09:31:17;16.20;99.90
30628;DHT22;17394;50.890;4.724;2023-03-13T09:33:44;16.30;99.90
30628;DHT22;17394;50.890;4.724;2023-03-13T09:36:10;16.30;99.90
30628;DHT22;17394;50.890;4.724;2023-03-13T09:38:36;16.40;99.90
30628;DHT22;17394;50.890;4.724;2023-03-13T09:44:01;16.20;99.90
30628;DHT22;17394;50.890;4.724;2023-03-13T09:46:30;16.40;99.90
30628;DHT22;17394;50.890;4.724;2023-03-13T09:48:59;16.70;99.90
30628;DHT22;17394;50.890;4.724;2023-03-13T09:51:27;16.90;99.90
30628;DHT22;17394;50.890;4.724;2023-03-13T09:56:44;17.10;99.90
30628;DHT22;17394;50.890;4.724;2023-03-13T09:59:18;17.30;99.90
30628;DHT22;17394;50.890;4.724;2023-03-13T10:01:47;17.20;99.90
30628;DHT22;17394;50.890;4.724;2023-03-13T10:06:45;17.10;99.90
30628;DHT22;17394;50.890;4.724;2023-03-13T10:09:18;17.20;99.90
30628;DHT22;17394;50.890;4.724;2023-03-13T10:11:55;17.30;99.90
30628;DHT22;17394;50.890;4.724;2023-03-13T10:14:29;17.40;99.90
30628;DHT22;17394;50.890;4.724;2023-03-13T10:19:32;17.70;99.90
30628;DHT22;17394;50.890;4.724;2023-03-13T10:21:59;17.90;99.90
30628;DHT22;17394;50.890;4.724;2023-03-13T10:24:49;18.00;99.90
30628;DHT22;17394;50.890;4.724;2023-03-13T10:27:16;18.00;99.90
30628;DHT22;17394;50.890;4.724;2023-03-13T10:29:42;18.10;99.90
30628;DHT22;17394;50.890;4.724;2023-03-13T10:32:09;18.30;99.90
30628;DHT22;17394;50.890;4.724;2023-03-13T10:35:10;18.30;99.90
30628;DHT22;17394;50.890;4.724;2023-03-13T10:37:31;18.20;99.90
30628;DHT22;17394;50.890;4.724;2023-03-13T10:42:42;17.70;99.90
30628;DHT22;17394;50.890;4.724;2023-03-13T10:45:12;17.70;99.90
30628;DHT22;17394;50.890;4.724;2023-03-13T10:47:38;17.60;99.90
30628;DHT22;17394;50.890;4.724;2023-03-13T10:50:04;17.50;99.90
30628;DHT22;17394;50.890;4.724;2023-03-13T10:52:34;17.50;99.90
30628;DHT22;17394;50.890;4.724;2023-03-13T10:55:06;17.40;99.90
30628;DHT22;17394;50.890;4.724;2023-03-13T10:57:33;17.50;99.90
30628;DHT22;17394;50.890;4.724;2023-03-13T10:59:59;17.80;99.90
30628;DHT22;17394;50.890;4.724;2023-03-13T11:04:57;18.10;99.90
30628;DHT22;17394;50.890;4.724;2023-03-13T11:07:25;18.00;99.90
30628;DHT22;17394;50.890;4.724;2023-03-13T11:09:58;18.10;99.90
30628;DHT22;17394;50.890;4.724;2023-03-13T11:12:24;18.10;99.90
30628;DHT22;17394;50.890;4.724;2023-03-13T11:14:58;18.10;99.90
30628;DHT22;17394;50.890;4.724;2023-03-13T11:17:28;18.10;99.90
30628;DHT22;17394;50.890;4.724;2023-03-13T11:20:11;18.20;99.90
30628;DHT22;17394;50.890;4.724;2023-03-13T11:22:44;18.20;99.90
30628;DHT22;17394;50.890;4.724;2023-03-13T11:30:07;18.10;99.90
30628;DHT22;17394;50.890;4.724;2023-03-13T11:32:40;18.20;99.90
30628;DHT22;17394;50.890;4.724;2023-03-13T11:35:14;18.30;99.90
30628;DHT22;17394;50.890;4.724;2023-03-13T11:37:41;18.30;99.90
30628;DHT22;17394;50.890;4.724;2023-03-13T11:47:58;17.90;99.90
30628;DHT22;17394;50.890;4.724;2023-03-13T11:58:18;18.20;99.90
30628;DHT22;17394;50.890;4.724;2023-03-13T12:01:34;18.10;99.90
30628;DHT22;17394;50.890;4.724;2023-03-13T12:06:03;18.30;99.90
30628;DHT22;17394;50.890;4.724;2023-03-13T12:08:35;18.50;99.90
30628;DHT22;17394;50.890;4.724;2023-03-13T12:13:40;18.50;99.90
30628;DHT22;17394;50.890;4.724;2023-03-13T12:16:11;18.50;99.90
30628;DHT22;17394;50.890;4.724;2023-03-13T12:18:39;18.40;99.90
30628;DHT22;17394;50.890;4.724;2023-03-13T12:21:08;18.20;99.90
30628;DHT22;17394;50.890;4.724;2023-03-13T12:36:19;18.00;99.90
30628;DHT22;17394;50.890;4.724;2023-03-13T12:38:54;18.00;99.90
30628;DHT22;17394;50.890;4.724;2023-03-13T12:41:24;18.00;99.90
30628;DHT22;17394;50.890;4.724;2023-03-13T12:43:52;18.00;99.90
30628;DHT22;17394;50.890;4.724;2023-03-13T12:46:33;18.00;99.90
30628;DHT22;17394;50.890;4.724;2023-03-13T12:51:44;18.00;99.90
30628;DHT22;17394;50.890;4.724;2023-03-13T12:56:55;18.00;99.90
30628;DHT22;17394;50.890;4.724;2023-03-13T12:59:26;18.10;99.90
30628;DHT22;17394;50.890;4.724;2023-03-13T13:01:53;18.20;99.90
30628;DHT22;17394;50.890;4.724;2023-03-13T13:11:49;18.30;99.90
30628;DHT22;17394;50.890;4.724;2023-03-13T13:16:47;17.90;99.90
30628;DHT22;17394;50.890;4.724;2023-03-13T13:24:40;18.00;99.90
30628;DHT22;17394;50.890;4.724;2023-03-13T13:27:25;18.00;99.90
30628;DHT22;17394;50.890;4.724;2023-03-13T13:29:52;18.00;99.90
30628;DHT22;17394;50.890;4.724;2023-03-13T13:32:27;18.00;99.90
30628;DHT22;17394;50.890;4.724;2023-03-13T13:34:55;18.10;99.90
30628;DHT22;17394;50.890;4.724;2023-03-13T13:37:25;18.10;99.90
30628;DHT22;17394;50.890;4.724;2023-03-13T13:39:53;18.10;99.90
30628;DHT22;17394;50.890;4.724;2023-03-13T13:47:42;18.10;99.90
30628;DHT22;17394;50.890;4.724;2023-03-13T13:52:43;17.90;99.90
30628;DHT22;17394;50.890;4.724;2023-03-13T13:57:58;17.80;99.90
30628;DHT22;17394;50.890;4.724;2023-03-13T14:00:25;17.80;99.90
30628;DHT22;17394;50.890;4.724;2023-03-13T14:02:52;17.80;99.90
30628;DHT22;17394;50.890;4.724;2023-03-13T14:05:22;17.80;99.90
30628;DHT22;17394;50.890;4.724;2023-03-13T14:10:40;17.90;99.90
30628;DHT22;17394;50.890;4.724;2023-03-13T14:13:10;18.00;99.90
30628;DHT22;17394;50.890;4.724;2023-03-13T14:15:36;18.00;99.90
30628;DHT22;17394;50.890;4.724;2023-03-13T14:18:10;18.00;99.90
30628;DHT22;17394;50.890;4.724;2023-03-13T14:20:39;17.90;99.90
30628;DHT22;17394;50.890;4.724;2023-03-13T14:23:09;17.80;99.90
30628;DHT22;17394;50.890;4.724;2023-03-13T14:25:45;17.70;99.90
30628;DHT22;17394;50.890;4.724;2023-03-13T14:28:22;17.70;99.90
30628;DHT22;17394;50.890;4.724;2023-03-13T14:30:49;17.60;99.90
30628;DHT22;17394;50.890;4.724;2023-03-13T14:33:16;17.60;99.90
30628;DHT22;17394;50.890;4.724;2023-03-13T14:35:42;17.70;99.90
30628;DHT22;17394;50.890;4.724;2023-03-13T14:38:19;17.70;99.90
30628;DHT22;17394;50.890;4.724;2023-03-13T14:40:45;17.60;99.90
30628;DHT22;17394;50.890;4.724;2023-03-13T14:43:31;17.50;99.90
30628;DHT22;17394;50.890;4.724;2023-03-13T14:45:57;17.50;99.90
30628;DHT22;17394;50.890;4.724;2023-03-13T14:48:33;17.40;99.90
30628;DHT22;17394;50.890;4.724;2023-03-13T14:51:00;17.30;99.90
30628;DHT22;17394;50.890;4.724;2023-03-13T14:53:27;17.30;99.90
30628;DHT22;17394;50.890;4.724;2023-03-13T14:56:12;17.40;99.90
30628;DHT22;17394;50.890;4.724;2023-03-13T14:58:38;17.40;99.90
30628;DHT22;17394;50.890;4.724;2023-03-13T15:01:12;17.30;99.90
30628;DHT22;17394;50.890;4.724;2023-03-13T15:03:43;17.20;99.90
30628;DHT22;17394;50.890;4.724;2023-03-13T15:08:40;17.20;99.90
30628;DHT22;17394;50.890;4.724;2023-03-13T15:11:19;17.30;99.90
30628;DHT22;17394;50.890;4.724;2023-03-13T15:13:46;17.30;99.90
30628;DHT22;17394;50.890;4.724;2023-03-13T15:16:13;17.40;99.90
30628;DHT22;17394;50.890;4.724;2023-03-13T15:18:39;17.40;99.90
30628;DHT22;17394;50.890;4.724;2023-03-13T15:23:37;17.30;99.90
30628;DHT22;17394;50.890;4.724;2023-03-13T15:26:04;17.50;99.90
30628;DHT22;17394;50.890;4.724;2023-03-13T15:28:30;17.30;99.90
30628;DHT22;17394;50.890;4.724;2023-03-13T15:30:56;17.30;99.90
30628;DHT22;17394;50.890;4.724;2023-03-13T15:33:23;17.30;99.90
30628;DHT22;17394;50.890;4.724;2023-03-13T15:35:50;17.30;99.90
30628;DHT22;17394;50.890;4.724;2023-03-13T15:38:17;17.30;99.90
30628;DHT22;17394;50.890;4.724;2023-03-13T15:40:43;17.30;99.90
30628;DHT22;17394;50.890;4.724;2023-03-13T15:43:10;17.30;99.90
30628;DHT22;17394;50.890;4.724;2023-03-13T15:45:36;17.20;99.90
30628;DHT22;17394;50.890;4.724;2023-03-13T15:48:09;16.90;99.90
30628;DHT22;17394;50.890;4.724;2023-03-13T15:50:36;17.20;99.90
30628;DHT22;17394;50.890;4.724;2023-03-13T15:53:05;17.10;99.90
30628;DHT22;17394;50.890;4.724;2023-03-13T15:55:31;17.00;99.90
30628;DHT22;17394;50.890;4.724;2023-03-13T15:57:57;16.90;99.90
30628;DHT22;17394;50.890;4.724;2023-03-13T16:00:24;16.80;99.90
30628;DHT22;17394;50.890;4.724;2023-03-13T16:02:50;16.70;99.90
30628;DHT22;17394;50.890;4.724;2023-03-13T16:05:16;16.80;99.90
30628;DHT22;17394;50.890;4.724;2023-03-13T16:07:42;16.80;99.90
30628;DHT22;17394;50.890;4.724;2023-03-13T16:10:24;16.70;99.90
30628;DHT22;17394;50.890;4.724;2023-03-13T16:12:50;16.70;99.90
30628;DHT22;17394;50.890;4.724;2023-03-13T16:15:16;16.70;99.90
30628;DHT22;17394;50.890;4.724;2023-03-13T16:17:42;16.50;99.90
30628;DHT22;17394;50.890;4.724;2023-03-13T16:20:16;16.50;99.90
30628;DHT22;17394;50.890;4.724;2023-03-13T16:22:43;16.40;99.90
30628;DHT22;17394;50.890;4.724;2023-03-13T16:25:10;16.40;99.90
30628;DHT22;17394;50.890;4.724;2023-03-13T16:27:36;16.30;99.90
30628;DHT22;17394;50.890;4.724;2023-03-13T16:30:02;16.30;99.90
30628;DHT22;17394;50.890;4.724;2023-03-13T16:32:31;16.30;99.90
30628;DHT22;17394;50.890;4.724;2023-03-13T16:34:57;16.20;99.90
30628;DHT22;17394;50.890;4.724;2023-03-13T16:37:24;16.20;99.90
30628;DHT22;17394;50.890;4.724;2023-03-13T16:39:49;16.20;99.90
30628;DHT22;17394;50.890;4.724;2023-03-13T16:42:15;16.10;99.90
30628;DHT22;17394;50.890;4.724;2023-03-13T16:44:41;16.10;99.90
30628;DHT22;17394;50.890;4.724;2023-03-13T16:47:16;16.00;99.90
30628;DHT22;17394;50.890;4.724;2023-03-13T16:49:42;16.00;99.90
30628;DHT22;17394;50.890;4.724;2023-03-13T16:52:12;15.90;99.90
30628;DHT22;17394;50.890;4.724;2023-03-13T16:54:38;15.80;99.90
30628;DHT22;17394;50.890;4.724;2023-03-13T16:57:04;15.70;99.90
30628;DHT22;17394;50.890;4.724;2023-03-13T16:59:33;15.70;99.90
30628;DHT22;17394;50.890;4.724;2023-03-13T17:01:59;15.60;99.90
30628;DHT22;17394;50.890;4.724;2023-03-13T17:04:25;15.60;99.90
30628;DHT22;17394;50.890;4.724;2023-03-13T17:06:56;15.50;99.90
30628;DHT22;17394;50.890;4.724;2023-03-13T17:09:22;15.40;99.90
30628;DHT22;17394;50.890;4.724;2023-03-13T17:11:48;15.40;99.90